sensor_id;sensor_type;location;lat;lon;timestamp;temperature;humidity
19359;DHT22;9815;52.334;20.890;2023-04-06T00:02:20;2.50;51.10
19359;DHT22;9815;52.334;20.890;2023-04-06T00:04:48;2.40;53.90
19359;DHT22;9815;52.334;20.890;2023-04-06T00:07:16;2.20;55.30
19359;DHT22;9815;52.334;20.890;2023-04-06T00:09:45;2.20;57.70
19359;DHT22;9815;52.334;20.890;2023-04-06T00:12:13;2.20;57.40
19359;DHT22;9815;52.334;20.890;2023-04-06T00:14:41;2.30;57.60
19359;DHT22;9815;52.334;20.890;2023-04-06T00:17:09;2.40;57.60
19359;DHT22;9815;52.334;20.890;2023-04-06T00:19:38;2.30;59.30
19359;DHT22;9815;52.334;20.890;2023-04-06T00:22:06;2.20;60.10
19359;DHT22;9815;52.334;20.890;2023-04-06T00:24:34;2.30;60.10
19359;DHT22;9815;52.334;20.890;2023-04-06T00:27:03;2.20;60.30
19359;DHT22;9815;52.334;20.890;2023-04-06T00:29:31;2.40;59.70
19359;DHT22;9815;52.334;20.890;2023-04-06T00:31:59;2.30;61.70
19359;DHT22;9815;52.334;20.890;2023-04-06T00:34:28;2.20;62.40
19359;DHT22;9815;52.334;20.890;2023-04-06T00:36:56;2.10;64.20
19359;DHT22;9815;52.334;20.890;2023-04-06T00:39:24;2.10;65.80
19359;DHT22;9815;52.334;20.890;2023-04-06T00:41:53;2.20;65.30
19359;DHT22;9815;52.334;20.890;2023-04-06T00:44:23;2.30;62.00
19359;DHT22;9815;52.334;20.890;2023-04-06T00:46:52;2.30;63.00
19359;DHT22;9815;52.334;20.890;2023-04-06T00:49:20;2.20;65.20
19359;DHT22;9815;52.334;20.890;2023-04-06T00:51:48;2.30;63.60
19359;DHT22;9815;52.334;20.890;2023-04-06T00:54:16;2.20;64.10
19359;DHT22;9815;52.334;20.890;2023-04-06T00:56:44;2.10;65.80
19359;DHT22;9815;52.334;20.890;2023-04-06T00:59:12;2.10;66.00
19359;DHT22;9815;52.334;20.890;2023-04-06T01:01:42;2.10;66.40
19359;DHT22;9815;52.334;20.890;2023-04-06T01:04:26;2.10;66.20
19359;DHT22;9815;52.334;20.890;2023-04-06T01:06:54;2.20;66.20
19359;DHT22;9815;52.334;20.890;2023-04-06T01:09:29;2.10;66.70
19359;DHT22;9815;52.334;20.890;2023-04-06T01:12:00;2.10;65.50
19359;DHT22;9815;52.334;20.890;2023-04-06T01:14:30;2.10;65.50
19359;DHT22;9815;52.334;20.890;2023-04-06T01:17:01;2.10;66.70
19359;DHT22;9815;52.334;20.890;2023-04-06T01:19:32;2.10;66.50
19359;DHT22;9815;52.334;20.890;2023-04-06T01:22:00;2.10;66.90
19359;DHT22;9815;52.334;20.890;2023-04-06T01:24:32;2.00;67.60
19359;DHT22;9815;52.334;20.890;2023-04-06T01:27:14;2.00;67.40
19359;DHT22;9815;52.334;20.890;2023-04-06T01:30:00;2.10;66.40
19359;DHT22;9815;52.334;20.890;2023-04-06T01:32:38;2.20;65.80
19359;DHT22;9815;52.334;20.890;2023-04-06T01:35:08;2.20;66.50
19359;DHT22;9815;52.334;20.890;2023-04-06T01:37:44;2.10;67.70
19359;DHT22;9815;52.334;20.890;2023-04-06T01:40:21;2.00;68.60
19359;DHT22;9815;52.334;20.890;2023-04-06T01:42:51;2.00;68.20
19359;DHT22;9815;52.334;20.890;2023-04-06T01:45:28;2.00;67.50
19359;DHT22;9815;52.334;20.890;2023-04-06T01:48:02;2.00;67.30
19359;DHT22;9815;52.334;20.890;2023-04-06T01:50:30;2.00;66.80
19359;DHT22;9815;52.334;20.890;2023-04-06T01:52:58;2.10;68.00
19359;DHT22;9815;52.334;20.890;2023-04-06T01:55:29;2.00;69.80
19359;DHT22;9815;52.334;20.890;2023-04-06T01:58:16;2.00;70.00
19359;DHT22;9815;52.334;20.890;2023-04-06T02:00:44;1.90;69.30
19359;DHT22;9815;52.334;20.890;2023-04-06T02:03:12;1.90;70.60
19359;DHT22;9815;52.334;20.890;2023-04-06T02:05:42;1.90;70.80
19359;DHT22;9815;52.334;20.890;2023-04-06T02:08:32;1.90;70.40
19359;DHT22;9815;52.334;20.890;2023-04-06T02:11:02;2.00;70.20
19359;DHT22;9815;52.334;20.890;2023-04-06T02:13:37;1.90;69.80
19359;DHT22;9815;52.334;20.890;2023-04-06T02:16:06;1.90;70.50
19359;DHT22;9815;52.334;20.890;2023-04-06T02:18:34;1.90;70.10
19359;DHT22;9815;52.334;20.890;2023-04-06T02:21:02;1.90;70.00
19359;DHT22;9815;52.334;20.890;2023-04-06T02:23:31;1.90;71.10
19359;DHT22;9815;52.334;20.890;2023-04-06T02:25:59;1.80;71.90
19359;DHT22;9815;52.334;20.890;2023-04-06T02:28:29;1.80;72.10
19359;DHT22;9815;52.334;20.890;2023-04-06T02:30:57;1.70;73.60
19359;DHT22;9815;52.334;20.890;2023-04-06T02:33:26;1.80;74.00
19359;DHT22;9815;52.334;20.890;2023-04-06T02:35:54;1.70;74.00
19359;DHT22;9815;52.334;20.890;2023-04-06T02:38:22;1.70;74.50
19359;DHT22;9815;52.334;20.890;2023-04-06T02:40:51;1.70;74.50
19359;DHT22;9815;52.334;20.890;2023-04-06T02:43:24;1.70;74.90
19359;DHT22;9815;52.334;20.890;2023-04-06T02:46:02;1.70;75.10
19359;DHT22;9815;52.334;20.890;2023-04-06T02:48:34;1.80;75.20
19359;DHT22;9815;52.334;20.890;2023-04-06T02:51:04;1.80;75.80
19359;DHT22;9815;52.334;20.890;2023-04-06T02:53:33;1.80;76.50
19359;DHT22;9815;52.334;20.890;2023-04-06T02:56:01;1.70;77.40
19359;DHT22;9815;52.334;20.890;2023-04-06T02:58:55;1.70;79.00
19359;DHT22;9815;52.334;20.890;2023-04-06T03:01:29;1.70;79.40
19359;DHT22;9815;52.334;20.890;2023-04-06T03:04:01;1.70;80.50
19359;DHT22;9815;52.334;20.890;2023-04-06T03:06:29;1.70;79.80
19359;DHT22;9815;52.334;20.890;2023-04-06T03:09:06;1.60;81.60
19359;DHT22;9815;52.334;20.890;2023-04-06T03:11:36;1.60;82.30
19359;DHT22;9815;52.334;20.890;2023-04-06T03:14:04;1.60;82.50
19359;DHT22;9815;52.334;20.890;2023-04-06T03:16:33;1.50;83.50
19359;DHT22;9815;52.334;20.890;2023-04-06T03:19:02;1.50;84.80
19359;DHT22;9815;52.334;20.890;2023-04-06T03:21:33;1.40;86.40
19359;DHT22;9815;52.334;20.890;2023-04-06T03:24:02;1.40;87.00
19359;DHT22;9815;52.334;20.890;2023-04-06T03:26:30;1.40;87.90
19359;DHT22;9815;52.334;20.890;2023-04-06T03:29:03;1.30;88.30
19359;DHT22;9815;52.334;20.890;2023-04-06T03:31:33;1.20;89.80
19359;DHT22;9815;52.334;20.890;2023-04-06T03:34:07;1.20;90.40
19359;DHT22;9815;52.334;20.890;2023-04-06T03:36:35;1.20;90.50
19359;DHT22;9815;52.334;20.890;2023-04-06T03:39:04;1.20;90.50
19359;DHT22;9815;52.334;20.890;2023-04-06T03:41:36;1.20;90.70
19359;DHT22;9815;52.334;20.890;2023-04-06T03:44:14;1.20;91.10
19359;DHT22;9815;52.334;20.890;2023-04-06T03:46:44;1.10;91.50
19359;DHT22;9815;52.334;20.890;2023-04-06T03:49:13;1.10;91.50
19359;DHT22;9815;52.334;20.890;2023-04-06T03:51:44;1.10;91.70
19359;DHT22;9815;52.334;20.890;2023-04-06T03:54:12;1.10;92.10
19359;DHT22;9815;52.334;20.890;2023-04-06T03:56:41;1.10;92.00
19359;DHT22;9815;52.334;20.890;2023-04-06T03:59:09;1.10;92.30
19359;DHT22;9815;52.334;20.890;2023-04-06T04:01:37;1.10;92.40
19359;DHT22;9815;52.334;20.890;2023-04-06T04:04:07;1.00;93.20
19359;DHT22;9815;52.334;20.890;2023-04-06T04:06:35;1.00;93.30
19359;DHT22;9815;52.334;20.890;2023-04-06T04:09:05;1.10;93.40
19359;DHT22;9815;52.334;20.890;2023-04-06T04:11:33;1.10;92.90
19359;DHT22;9815;52.334;20.890;2023-04-06T04:14:01;1.10;92.90
19359;DHT22;9815;52.334;20.890;2023-04-06T04:16:30;1.10;92.80
19359;DHT22;9815;52.334;20.890;2023-04-06T04:18:58;1.10;92.20
19359;DHT22;9815;52.334;20.890;2023-04-06T04:21:29;1.20;91.70
19359;DHT22;9815;52.334;20.890;2023-04-06T04:24:01;1.30;90.90
19359;DHT22;9815;52.334;20.890;2023-04-06T04:26:33;1.30;91.30
19359;DHT22;9815;52.334;20.890;2023-04-06T04:29:01;1.30;91.40
19359;DHT22;9815;52.334;20.890;2023-04-06T04:31:29;1.30;90.90
19359;DHT22;9815;52.334;20.890;2023-04-06T04:34:01;1.30;90.80
19359;DHT22;9815;52.334;20.890;2023-04-06T04:36:34;1.40;90.20
19359;DHT22;9815;52.334;20.890;2023-04-06T04:39:06;1.40;90.50
19359;DHT22;9815;52.334;20.890;2023-04-06T04:41:38;1.40;91.10
19359;DHT22;9815;52.334;20.890;2023-04-06T04:44:09;1.30;90.40
19359;DHT22;9815;52.334;20.890;2023-04-06T04:46:37;1.40;90.50
19359;DHT22;9815;52.334;20.890;2023-04-06T04:49:07;1.30;90.00
19359;DHT22;9815;52.334;20.890;2023-04-06T04:51:37;1.30;90.50
19359;DHT22;9815;52.334;20.890;2023-04-06T04:54:11;1.30;90.40
19359;DHT22;9815;52.334;20.890;2023-04-06T04:56:40;1.30;90.60
19359;DHT22;9815;52.334;20.890;2023-04-06T04:59:21;1.40;90.60
19359;DHT22;9815;52.334;20.890;2023-04-06T05:01:56;1.50;91.10
19359;DHT22;9815;52.334;20.890;2023-04-06T05:04:33;1.40;90.60
19359;DHT22;9815;52.334;20.890;2023-04-06T05:07:06;1.50;90.30
19359;DHT22;9815;52.334;20.890;2023-04-06T05:09:37;1.60;88.90
19359;DHT22;9815;52.334;20.890;2023-04-06T05:12:06;1.60;89.90
19359;DHT22;9815;52.334;20.890;2023-04-06T05:14:42;1.60;90.00
19359;DHT22;9815;52.334;20.890;2023-04-06T05:17:14;1.60;89.80
19359;DHT22;9815;52.334;20.890;2023-04-06T05:19:42;1.70;87.60
19359;DHT22;9815;52.334;20.890;2023-04-06T05:22:14;1.70;89.20
19359;DHT22;9815;52.334;20.890;2023-04-06T05:24:49;1.70;89.20
19359;DHT22;9815;52.334;20.890;2023-04-06T05:27:17;1.80;88.50
19359;DHT22;9815;52.334;20.890;2023-04-06T05:29:46;1.80;87.00
19359;DHT22;9815;52.334;20.890;2023-04-06T05:32:15;1.80;86.50
19359;DHT22;9815;52.334;20.890;2023-04-06T05:34:44;1.80;86.40
19359;DHT22;9815;52.334;20.890;2023-04-06T05:37:13;1.80;87.70
19359;DHT22;9815;52.334;20.890;2023-04-06T05:39:42;1.90;87.70
19359;DHT22;9815;52.334;20.890;2023-04-06T05:42:10;2.00;88.10
19359;DHT22;9815;52.334;20.890;2023-04-06T05:44:50;2.10;84.20
19359;DHT22;9815;52.334;20.890;2023-04-06T05:47:19;2.10;83.90
19359;DHT22;9815;52.334;20.890;2023-04-06T05:49:54;2.20;83.60
19359;DHT22;9815;52.334;20.890;2023-04-06T05:52:32;2.20;82.40
19359;DHT22;9815;52.334;20.890;2023-04-06T05:55:00;2.30;83.90
19359;DHT22;9815;52.334;20.890;2023-04-06T05:57:30;2.40;82.90
19359;DHT22;9815;52.334;20.890;2023-04-06T05:59:58;2.50;80.60
19359;DHT22;9815;52.334;20.890;2023-04-06T06:02:38;2.70;78.90
19359;DHT22;9815;52.334;20.890;2023-04-06T06:05:14;2.80;77.60
19359;DHT22;9815;52.334;20.890;2023-04-06T06:07:44;2.90;75.70
19359;DHT22;9815;52.334;20.890;2023-04-06T06:10:12;3.00;75.70
19359;DHT22;9815;52.334;20.890;2023-04-06T06:12:41;3.00;71.50
19359;DHT22;9815;52.334;20.890;2023-04-06T06:15:09;3.00;70.10
19359;DHT22;9815;52.334;20.890;2023-04-06T06:17:42;3.00;70.80
19359;DHT22;9815;52.334;20.890;2023-04-06T06:20:11;2.80;71.60
19359;DHT22;9815;52.334;20.890;2023-04-06T06:22:41;3.00;69.90
19359;DHT22;9815;52.334;20.890;2023-04-06T06:25:15;3.00;71.30
19359;DHT22;9815;52.334;20.890;2023-04-06T06:27:45;3.10;68.50
19359;DHT22;9815;52.334;20.890;2023-04-06T06:30:16;3.10;68.90
19359;DHT22;9815;52.334;20.890;2023-04-06T06:32:49;3.20;67.70
19359;DHT22;9815;52.334;20.890;2023-04-06T06:35:18;3.30;66.30
19359;DHT22;9815;52.334;20.890;2023-04-06T06:37:47;3.40;67.00
19359;DHT22;9815;52.334;20.890;2023-04-06T06:40:20;3.50;66.90
19359;DHT22;9815;52.334;20.890;2023-04-06T06:42:52;3.60;65.00
19359;DHT22;9815;52.334;20.890;2023-04-06T06:45:40;3.70;65.80
19359;DHT22;9815;52.334;20.890;2023-04-06T06:48:08;3.80;61.40
19359;DHT22;9815;52.334;20.890;2023-04-06T06:50:38;3.70;62.00
19359;DHT22;9815;52.334;20.890;2023-04-06T06:53:06;3.80;60.60
19359;DHT22;9815;52.334;20.890;2023-04-06T06:55:35;3.70;59.70
19359;DHT22;9815;52.334;20.890;2023-04-06T06:58:03;3.60;58.50
19359;DHT22;9815;52.334;20.890;2023-04-06T07:00:32;3.70;58.20
19359;DHT22;9815;52.334;20.890;2023-04-06T07:03:01;3.70;58.60
19359;DHT22;9815;52.334;20.890;2023-04-06T07:05:29;3.70;59.10
19359;DHT22;9815;52.334;20.890;2023-04-06T07:07:58;3.70;59.20
19359;DHT22;9815;52.334;20.890;2023-04-06T07:10:26;3.80;59.20
19359;DHT22;9815;52.334;20.890;2023-04-06T07:12:56;3.60;57.60
19359;DHT22;9815;52.334;20.890;2023-04-06T07:15:24;3.80;58.00
19359;DHT22;9815;52.334;20.890;2023-04-06T07:17:53;3.90;56.70
19359;DHT22;9815;52.334;20.890;2023-04-06T07:20:22;3.80;57.40
19359;DHT22;9815;52.334;20.890;2023-04-06T07:22:50;3.70;57.90
19359;DHT22;9815;52.334;20.890;2023-04-06T07:25:18;3.90;58.20
19359;DHT22;9815;52.334;20.890;2023-04-06T07:27:48;4.10;56.80
19359;DHT22;9815;52.334;20.890;2023-04-06T07:30:19;4.40;57.20
19359;DHT22;9815;52.334;20.890;2023-04-06T07:32:48;4.30;53.60
19359;DHT22;9815;52.334;20.890;2023-04-06T07:35:17;4.20;55.60
19359;DHT22;9815;52.334;20.890;2023-04-06T07:37:45;4.30;55.60
19359;DHT22;9815;52.334;20.890;2023-04-06T07:40:13;4.40;54.70
19359;DHT22;9815;52.334;20.890;2023-04-06T07:42:42;4.20;53.70
19359;DHT22;9815;52.334;20.890;2023-04-06T07:45:10;4.10;53.90
19359;DHT22;9815;52.334;20.890;2023-04-06T07:47:40;4.10;56.70
19359;DHT22;9815;52.334;20.890;2023-04-06T07:50:09;4.00;55.10
19359;DHT22;9815;52.334;20.890;2023-04-06T07:52:38;4.10;55.80
19359;DHT22;9815;52.334;20.890;2023-04-06T07:55:08;4.20;56.40
19359;DHT22;9815;52.334;20.890;2023-04-06T07:57:36;4.20;54.70
19359;DHT22;9815;52.334;20.890;2023-04-06T08:00:05;4.10;54.90
19359;DHT22;9815;52.334;20.890;2023-04-06T08:02:37;4.10;55.50
19359;DHT22;9815;52.334;20.890;2023-04-06T08:05:08;4.00;56.80
19359;DHT22;9815;52.334;20.890;2023-04-06T08:07:36;4.00;55.80
19359;DHT22;9815;52.334;20.890;2023-04-06T08:10:05;4.10;58.20
19359;DHT22;9815;52.334;20.890;2023-04-06T08:12:33;4.20;55.50
19359;DHT22;9815;52.334;20.890;2023-04-06T08:15:01;4.30;56.50
19359;DHT22;9815;52.334;20.890;2023-04-06T08:17:31;4.30;55.10
19359;DHT22;9815;52.334;20.890;2023-04-06T08:20:01;4.30;56.40
19359;DHT22;9815;52.334;20.890;2023-04-06T08:22:31;4.30;57.10
19359;DHT22;9815;52.334;20.890;2023-04-06T08:24:59;4.10;59.30
19359;DHT22;9815;52.334;20.890;2023-04-06T08:27:27;3.90;61.80
19359;DHT22;9815;52.334;20.890;2023-04-06T08:29:55;3.80;66.00
19359;DHT22;9815;52.334;20.890;2023-04-06T08:32:25;3.80;69.70
19359;DHT22;9815;52.334;20.890;2023-04-06T08:34:53;4.00;70.40
19359;DHT22;9815;52.334;20.890;2023-04-06T08:37:21;3.90;71.40
19359;DHT22;9815;52.334;20.890;2023-04-06T08:39:51;4.00;70.80
19359;DHT22;9815;52.334;20.890;2023-04-06T08:42:20;3.90;71.70
19359;DHT22;9815;52.334;20.890;2023-04-06T08:44:49;3.90;73.90
19359;DHT22;9815;52.334;20.890;2023-04-06T08:47:18;3.90;75.40
19359;DHT22;9815;52.334;20.890;2023-04-06T08:49:50;4.10;78.90
19359;DHT22;9815;52.334;20.890;2023-04-06T08:52:19;4.20;76.70
19359;DHT22;9815;52.334;20.890;2023-04-06T08:54:47;4.30;78.70
19359;DHT22;9815;52.334;20.890;2023-04-06T08:57:17;4.20;76.60
19359;DHT22;9815;52.334;20.890;2023-04-06T08:59:46;4.10;81.50
19359;DHT22;9815;52.334;20.890;2023-04-06T09:02:17;4.00;78.80
19359;DHT22;9815;52.334;20.890;2023-04-06T09:04:46;3.90;83.00
19359;DHT22;9815;52.334;20.890;2023-04-06T09:07:15;3.80;84.30
19359;DHT22;9815;52.334;20.890;2023-04-06T09:09:43;3.80;87.40
19359;DHT22;9815;52.334;20.890;2023-04-06T09:12:24;3.60;87.50
19359;DHT22;9815;52.334;20.890;2023-04-06T09:14:53;3.70;87.90
19359;DHT22;9815;52.334;20.890;2023-04-06T09:17:23;3.80;88.20
19359;DHT22;9815;52.334;20.890;2023-04-06T09:19:52;4.00;89.10
19359;DHT22;9815;52.334;20.890;2023-04-06T09:22:20;4.00;86.30
19359;DHT22;9815;52.334;20.890;2023-04-06T09:24:50;4.00;83.00
19359;DHT22;9815;52.334;20.890;2023-04-06T09:27:31;3.90;83.10
19359;DHT22;9815;52.334;20.890;2023-04-06T09:30:09;3.90;83.30
19359;DHT22;9815;52.334;20.890;2023-04-06T09:32:48;3.70;83.40
19359;DHT22;9815;52.334;20.890;2023-04-06T09:35:17;3.70;85.20
19359;DHT22;9815;52.334;20.890;2023-04-06T09:37:47;3.80;87.10
19359;DHT22;9815;52.334;20.890;2023-04-06T09:40:16;3.70;82.40
19359;DHT22;9815;52.334;20.890;2023-04-06T09:42:48;3.70;85.40
19359;DHT22;9815;52.334;20.890;2023-04-06T09:45:17;3.70;82.90
19359;DHT22;9815;52.334;20.890;2023-04-06T09:47:46;3.60;85.90
19359;DHT22;9815;52.334;20.890;2023-04-06T09:50:14;3.50;86.90
19359;DHT22;9815;52.334;20.890;2023-04-06T09:52:47;3.30;91.10
19359;DHT22;9815;52.334;20.890;2023-04-06T09:55:20;3.20;94.00
19359;DHT22;9815;52.334;20.890;2023-04-06T09:57:57;3.30;96.40
19359;DHT22;9815;52.334;20.890;2023-04-06T10:00:29;3.30;99.60
19359;DHT22;9815;52.334;20.890;2023-04-06T10:03:06;3.30;99.40
19359;DHT22;9815;52.334;20.890;2023-04-06T10:05:40;3.30;99.90
19359;DHT22;9815;52.334;20.890;2023-04-06T10:08:10;3.40;97.60
19359;DHT22;9815;52.334;20.890;2023-04-06T10:10:38;3.30;97.70
19359;DHT22;9815;52.334;20.890;2023-04-06T10:13:11;3.50;99.90
19359;DHT22;9815;52.334;20.890;2023-04-06T10:15:39;3.50;98.60
19359;DHT22;9815;52.334;20.890;2023-04-06T10:18:08;3.60;98.60
19359;DHT22;9815;52.334;20.890;2023-04-06T10:20:39;3.70;95.80
19359;DHT22;9815;52.334;20.890;2023-04-06T10:23:12;3.60;92.60
19359;DHT22;9815;52.334;20.890;2023-04-06T10:25:52;3.70;94.20
19359;DHT22;9815;52.334;20.890;2023-04-06T10:28:22;3.80;93.20
19359;DHT22;9815;52.334;20.890;2023-04-06T10:30:57;4.00;92.50
19359;DHT22;9815;52.334;20.890;2023-04-06T10:33:26;4.10;92.20
19359;DHT22;9815;52.334;20.890;2023-04-06T10:35:54;4.00;92.90
19359;DHT22;9815;52.334;20.890;2023-04-06T10:38:33;4.20;93.10
19359;DHT22;9815;52.334;20.890;2023-04-06T10:41:05;3.90;93.60
19359;DHT22;9815;52.334;20.890;2023-04-06T10:43:36;3.70;96.70
19359;DHT22;9815;52.334;20.890;2023-04-06T10:46:05;3.50;98.90
19359;DHT22;9815;52.334;20.890;2023-04-06T10:48:37;3.40;99.90
19359;DHT22;9815;52.334;20.890;2023-04-06T10:51:11;3.30;99.90
19359;DHT22;9815;52.334;20.890;2023-04-06T10:53:42;3.20;99.90
19359;DHT22;9815;52.334;20.890;2023-04-06T10:56:12;3.10;99.90
19359;DHT22;9815;52.334;20.890;2023-04-06T10:58:45;3.10;99.90
19359;DHT22;9815;52.334;20.890;2023-04-06T11:01:15;3.10;99.90
19359;DHT22;9815;52.334;20.890;2023-04-06T11:03:44;3.10;99.90
19359;DHT22;9815;52.334;20.890;2023-04-06T11:06:18;3.10;99.90
19359;DHT22;9815;52.334;20.890;2023-04-06T11:08:46;3.30;99.90
19359;DHT22;9815;52.334;20.890;2023-04-06T11:11:15;3.40;99.90
19359;DHT22;9815;52.334;20.890;2023-04-06T11:13:48;3.50;99.90
19359;DHT22;9815;52.334;20.890;2023-04-06T11:16:18;3.40;99.90
19359;DHT22;9815;52.334;20.890;2023-04-06T11:18:48;3.50;99.90
19359;DHT22;9815;52.334;20.890;2023-04-06T11:21:16;3.50;99.90
19359;DHT22;9815;52.334;20.890;2023-04-06T11:23:44;3.50;99.90
19359;DHT22;9815;52.334;20.890;2023-04-06T11:26:13;3.50;99.90
19359;DHT22;9815;52.334;20.890;2023-04-06T11:28:42;3.50;99.90
19359;DHT22;9815;52.334;20.890;2023-04-06T11:31:11;3.50;99.90
19359;DHT22;9815;52.334;20.890;2023-04-06T11:33:40;3.50;99.90
19359;DHT22;9815;52.334;20.890;2023-04-06T11:36:08;3.60;99.90
19359;DHT22;9815;52.334;20.890;2023-04-06T11:38:39;3.60;99.90
19359;DHT22;9815;52.334;20.890;2023-04-06T11:41:07;3.50;99.90
19359;DHT22;9815;52.334;20.890;2023-04-06T11:43:35;3.50;99.90
19359;DHT22;9815;52.334;20.890;2023-04-06T11:46:04;3.60;99.90
19359;DHT22;9815;52.334;20.890;2023-04-06T11:48:44;3.60;99.90
19359;DHT22;9815;52.334;20.890;2023-04-06T11:51:12;3.70;99.90
19359;DHT22;9815;52.334;20.890;2023-04-06T11:53:49;3.70;99.90
19359;DHT22;9815;52.334;20.890;2023-04-06T11:56:27;3.70;99.90
19359;DHT22;9815;52.334;20.890;2023-04-06T11:58:57;3.80;99.90
19359;DHT22;9815;52.334;20.890;2023-04-06T12:01:26;3.70;99.90
19359;DHT22;9815;52.334;20.890;2023-04-06T12:03:56;3.70;99.90
19359;DHT22;9815;52.334;20.890;2023-04-06T12:06:25;3.80;99.90
19359;DHT22;9815;52.334;20.890;2023-04-06T12:08:53;3.70;99.90
19359;DHT22;9815;52.334;20.890;2023-04-06T12:11:21;3.70;99.90
19359;DHT22;9815;52.334;20.890;2023-04-06T12:13:49;3.80;99.90
19359;DHT22;9815;52.334;20.890;2023-04-06T12:16:17;3.80;99.90
19359;DHT22;9815;52.334;20.890;2023-04-06T12:18:47;3.80;99.90
19359;DHT22;9815;52.334;20.890;2023-04-06T12:21:16;3.80;99.90
19359;DHT22;9815;52.334;20.890;2023-04-06T12:23:44;3.80;99.90
19359;DHT22;9815;52.334;20.890;2023-04-06T12:26:12;3.90;99.90
19359;DHT22;9815;52.334;20.890;2023-04-06T12:28:40;3.80;99.90
19359;DHT22;9815;52.334;20.890;2023-04-06T12:31:14;3.90;99.90
19359;DHT22;9815;52.334;20.890;2023-04-06T12:33:42;3.90;99.90
19359;DHT22;9815;52.334;20.890;2023-04-06T12:36:12;3.90;99.90
19359;DHT22;9815;52.334;20.890;2023-04-06T12:38:41;3.90;99.90
19359;DHT22;9815;52.334;20.890;2023-04-06T12:41:12;3.90;99.90
19359;DHT22;9815;52.334;20.890;2023-04-06T12:43:42;3.90;99.90
19359;DHT22;9815;52.334;20.890;2023-04-06T12:46:10;3.90;99.90
19359;DHT22;9815;52.334;20.890;2023-04-06T12:48:39;3.90;99.90
19359;DHT22;9815;52.334;20.890;2023-04-06T12:51:07;3.90;99.90
19359;DHT22;9815;52.334;20.890;2023-04-06T12:53:36;4.00;99.90
19359;DHT22;9815;52.334;20.890;2023-04-06T12:56:11;4.00;99.90
19359;DHT22;9815;52.334;20.890;2023-04-06T12:58:40;4.00;99.90
19359;DHT22;9815;52.334;20.890;2023-04-06T13:01:09;4.10;99.90
19359;DHT22;9815;52.334;20.890;2023-04-06T13:03:38;4.00;99.90
19359;DHT22;9815;52.334;20.890;2023-04-06T13:06:07;4.00;99.90
19359;DHT22;9815;52.334;20.890;2023-04-06T13:08:36;4.00;99.90
19359;DHT22;9815;52.334;20.890;2023-04-06T13:11:05;3.80;99.90
19359;DHT22;9815;52.334;20.890;2023-04-06T13:13:36;3.90;99.90
19359;DHT22;9815;52.334;20.890;2023-04-06T13:16:06;3.90;99.90
19359;DHT22;9815;52.334;20.890;2023-04-06T13:18:36;3.90;99.90
19359;DHT22;9815;52.334;20.890;2023-04-06T13:21:06;3.80;99.90
19359;DHT22;9815;52.334;20.890;2023-04-06T13:23:34;3.80;99.90
19359;DHT22;9815;52.334;20.890;2023-04-06T13:26:05;3.80;99.90
19359;DHT22;9815;52.334;20.890;2023-04-06T13:28:34;3.80;99.90
19359;DHT22;9815;52.334;20.890;2023-04-06T13:31:05;3.70;99.90
19359;DHT22;9815;52.334;20.890;2023-04-06T13:33:33;3.80;99.90
19359;DHT22;9815;52.334;20.890;2023-04-06T13:36:02;3.80;99.90
19359;DHT22;9815;52.334;20.890;2023-04-06T13:38:30;3.80;99.90
19359;DHT22;9815;52.334;20.890;2023-04-06T13:41:00;3.80;99.90
19359;DHT22;9815;52.334;20.890;2023-04-06T13:43:28;3.80;99.90
19359;DHT22;9815;52.334;20.890;2023-04-06T13:45:57;3.80;99.90
19359;DHT22;9815;52.334;20.890;2023-04-06T13:48:29;3.90;99.90
19359;DHT22;9815;52.334;20.890;2023-04-06T13:50:57;3.80;99.90
19359;DHT22;9815;52.334;20.890;2023-04-06T13:53:25;3.80;99.90
19359;DHT22;9815;52.334;20.890;2023-04-06T13:55:53;3.70;99.90
19359;DHT22;9815;52.334;20.890;2023-04-06T13:58:22;3.80;99.90
19359;DHT22;9815;52.334;20.890;2023-04-06T14:00:50;3.80;99.90
19359;DHT22;9815;52.334;20.890;2023-04-06T14:03:21;3.80;99.90
19359;DHT22;9815;52.334;20.890;2023-04-06T14:05:51;3.90;99.90
19359;DHT22;9815;52.334;20.890;2023-04-06T14:08:19;3.80;99.90
19359;DHT22;9815;52.334;20.890;2023-04-06T14:10:47;3.70;99.90
19359;DHT22;9815;52.334;20.890;2023-04-06T14:13:15;3.80;99.90
19359;DHT22;9815;52.334;20.890;2023-04-06T14:15:43;3.70;99.90
19359;DHT22;9815;52.334;20.890;2023-04-06T14:18:11;3.70;99.90
19359;DHT22;9815;52.334;20.890;2023-04-06T14:20:39;3.70;99.90
19359;DHT22;9815;52.334;20.890;2023-04-06T14:23:09;3.70;99.90
19359;DHT22;9815;52.334;20.890;2023-04-06T14:25:37;3.60;99.90
19359;DHT22;9815;52.334;20.890;2023-04-06T14:28:05;3.60;99.90
19359;DHT22;9815;52.334;20.890;2023-04-06T14:30:33;3.60;99.90
19359;DHT22;9815;52.334;20.890;2023-04-06T14:33:02;3.60;99.90
19359;DHT22;9815;52.334;20.890;2023-04-06T14:35:30;3.60;99.90
19359;DHT22;9815;52.334;20.890;2023-04-06T14:37:59;3.60;99.90
19359;DHT22;9815;52.334;20.890;2023-04-06T14:40:29;3.60;99.90
19359;DHT22;9815;52.334;20.890;2023-04-06T14:42:57;3.50;99.90
19359;DHT22;9815;52.334;20.890;2023-04-06T14:45:25;3.50;99.90
19359;DHT22;9815;52.334;20.890;2023-04-06T14:47:53;3.50;99.90
19359;DHT22;9815;52.334;20.890;2023-04-06T14:50:21;3.50;99.90
19359;DHT22;9815;52.334;20.890;2023-04-06T14:52:49;3.50;99.90
19359;DHT22;9815;52.334;20.890;2023-04-06T14:55:17;3.60;99.90
19359;DHT22;9815;52.334;20.890;2023-04-06T14:57:47;3.60;99.90
19359;DHT22;9815;52.334;20.890;2023-04-06T15:00:15;3.50;99.90
19359;DHT22;9815;52.334;20.890;2023-04-06T15:02:43;3.60;99.90
19359;DHT22;9815;52.334;20.890;2023-04-06T15:05:12;3.60;99.90
19359;DHT22;9815;52.334;20.890;2023-04-06T15:07:41;3.60;99.90
19359;DHT22;9815;52.334;20.890;2023-04-06T15:10:09;3.60;99.90
19359;DHT22;9815;52.334;20.890;2023-04-06T15:12:38;3.60;99.90
19359;DHT22;9815;52.334;20.890;2023-04-06T15:15:08;3.70;99.90
19359;DHT22;9815;52.334;20.890;2023-04-06T15:17:37;3.60;99.90
19359;DHT22;9815;52.334;20.890;2023-04-06T15:20:06;3.60;99.90
19359;DHT22;9815;52.334;20.890;2023-04-06T15:22:34;3.60;99.90
19359;DHT22;9815;52.334;20.890;2023-04-06T15:25:02;3.60;99.90
19359;DHT22;9815;52.334;20.890;2023-04-06T15:27:31;3.70;99.90
19359;DHT22;9815;52.334;20.890;2023-04-06T15:29:59;3.60;99.90
19359;DHT22;9815;52.334;20.890;2023-04-06T15:32:28;3.60;99.90
19359;DHT22;9815;52.334;20.890;2023-04-06T15:34:57;3.60;99.90
19359;DHT22;9815;52.334;20.890;2023-04-06T15:37:26;3.60;99.90
19359;DHT22;9815;52.334;20.890;2023-04-06T15:39:54;3.70;99.90
19359;DHT22;9815;52.334;20.890;2023-04-06T15:42:23;3.70;99.90
19359;DHT22;9815;52.334;20.890;2023-04-06T15:44:52;3.60;99.90
19359;DHT22;9815;52.334;20.890;2023-04-06T15:47:19;3.60;99.90
19359;DHT22;9815;52.334;20.890;2023-04-06T15:49:49;3.60;99.90
19359;DHT22;9815;52.334;20.890;2023-04-06T15:52:17;3.60;99.90
19359;DHT22;9815;52.334;20.890;2023-04-06T15:54:45;3.60;99.90
19359;DHT22;9815;52.334;20.890;2023-04-06T15:57:13;3.60;99.90
19359;DHT22;9815;52.334;20.890;2023-04-06T15:59:41;3.60;99.90
19359;DHT22;9815;52.334;20.890;2023-04-06T16:02:10;3.60;99.90
19359;DHT22;9815;52.334;20.890;2023-04-06T16:04:38;3.50;99.90